Plainwell, MI (49080)

2:39 AM EST on November 20, 2017 (GMT -0500)
Weather Coffee Shoppe - Otsego | | Change Station

Elev 722 ft 42.46 °N, 85.71 °W | Updated 7 seconds ago

Partly Cloudy
Partly Cloudy
28.2 °F
Feels Like 28 °F
N
0.0
Wind Variable Wind from NNW

Today
High -- | Low -- °F
--% Chance of Precip.
Yesterday
High -- | Low -- °F
Precip. -- in
Pressure 30.05 in
Visibility 10.0 miles
Clouds Few 2600 ft
Windchill 28 °F
Dew Point 26 °F
Humidity 93%
Rainfall 0.00 in
Snow Depth Not available.
7:40 AM 5:16 PM
Waxing Crescent, 3% visible
METAR KAZO 200653Z AUTO 22010KT 10SM FEW026 M02/M06 A3002 RMK AO2 SLP176 T10221061
Pressure 30.05 in
Visibility 10.0 miles
Clouds Few 2600 ft
Windchill 28 °F
Dew Point 26 °F
Humidity 93%
Rainfall 0.00 in
Snow Depth Not available.
7:40 AM 5:16 PM
Waxing Crescent, 3% visible
METAR KAZO 200653Z AUTO 22010KT 10SM FEW026 M02/M06 A3002 RMK AO2 SLP176 T10221061

Get Severe Weather Alerts

Thanks for signing up!

Be on the lookout for a verification email in your inbox.

You'll start receiving the daily forecast at 6 AM.

×

10-Day Weather Forecast

Almanac

Astronomy

Nov. 20, 2017 Rise Set
Actual Time
Civil Twilight
Nautical Twilight
Astronomical Twilight
Moon
Length of Visible Light
Length of Day
Tomorrow will be .
, % of the Moon is Illuminated

Today's Extremes

State Highs State Lows

Community

WunderPhotos

Category 6

Welcome to Category 6. This is the collective home for Weather Underground's featured writeups by Dr. Jeff Masters (right), Bob Henson (left), Chris Burt, and other regular contributors.

Nearby

Air Quality

  Air Quality AQ Index Pollutant
Not available.

Snow Depth

Station Depth Elevation

Earthquake Activity

City Distance Mag. Time & Date
Minimum magnitude displayed is 2.5.

Coastal Water Temperatures

Place Temperature

Stations

Nearby Weather Stations

Station Location Temp. Windchill Dew Point Humidity Wind Precip. Elev Updated Type
                   

Watches & Warnings

There are currently no watches in effect.